createdAt,value
2022-12-12T00:01:13.011Z,15.30
2022-12-12T00:03:40.483Z,22.95
2022-12-12T00:06:07.754Z,20.05
2022-12-12T00:08:34.864Z,19.58
2022-12-12T00:11:02.045Z,21.13
2022-12-12T00:13:29.140Z,17.13
2022-12-12T00:15:56.315Z,17.67
2022-12-12T00:18:23.391Z,22.05
2022-12-12T00:20:55.875Z,20.70
2022-12-12T00:23:24.848Z,18.05
2022-12-12T00:25:57.794Z,25.35
2022-12-12T00:28:25.491Z,18.23
2022-12-12T00:30:53.181Z,18.00
2022-12-12T00:33:20.187Z,18.77
2022-12-12T00:35:51.348Z,19.10
2022-12-12T00:40:47.447Z,20.95
2022-12-12T00:43:14.777Z,19.40
2022-12-12T00:45:41.995Z,23.23
2022-12-12T00:48:10.163Z,19.70
2022-12-12T00:50:38.002Z,18.45
2022-12-12T00:53:05.268Z,20.13
2022-12-12T00:55:32.507Z,23.27
2022-12-12T00:58:00.406Z,21.10
2022-12-12T01:00:27.496Z,16.35
2022-12-12T01:02:57.686Z,21.65
2022-12-12T01:05:25.594Z,22.23
2022-12-12T01:07:52.934Z,28.17
2022-12-12T01:10:20.113Z,36.08
2022-12-12T01:12:47.321Z,35.60
2022-12-12T01:15:15.016Z,29.33
2022-12-12T01:17:42.150Z,23.23
2022-12-12T01:20:17.043Z,22.45
2022-12-12T01:22:44.409Z,20.63
2022-12-12T01:25:15.893Z,33.88
2022-12-12T01:27:43.818Z,31.40
2022-12-12T01:30:13.888Z,25.40
2022-12-12T01:32:41.100Z,14.55
2022-12-12T01:35:08.589Z,15.07
2022-12-12T01:37:36.603Z,13.77
2022-12-12T01:40:06.222Z,13.85
2022-12-12T01:42:33.361Z,13.77
2022-12-12T01:45:01.503Z,15.38
2022-12-12T01:47:28.701Z,13.50
2022-12-12T01:50:06.167Z,15.52
2022-12-12T01:52:41.799Z,14.52
2022-12-12T01:55:15.616Z,14.55
2022-12-12T01:57:47.452Z,13.98
2022-12-12T02:00:15.656Z,15.18
2022-12-12T02:02:46.459Z,16.40
2022-12-12T02:05:42.527Z,14.38
2022-12-12T02:08:11.218Z,14.80
2022-12-12T02:10:38.808Z,16.02
2022-12-12T02:13:10.259Z,13.63
2022-12-12T02:15:44.831Z,12.30
2022-12-12T02:18:20.473Z,15.10
2022-12-12T02:21:04.609Z,16.40
2022-12-12T02:24:09.699Z,15.90
2022-12-12T02:26:51.638Z,12.80
2022-12-12T02:29:31.111Z,14.73
2022-12-12T02:32:19.835Z,22.02
2022-12-12T02:35:28.297Z,18.17
2022-12-12T02:38:07.331Z,16.23
2022-12-12T02:40:53.779Z,13.70
2022-12-12T02:43:57.992Z,14.18
2022-12-12T02:46:53.583Z,17.48
2022-12-12T02:49:37.050Z,16.65
2022-12-12T02:52:07.372Z,12.48
2022-12-12T02:54:35.040Z,16.75
2022-12-12T02:57:03.258Z,16.00
2022-12-12T02:59:34.579Z,11.98
2022-12-12T03:02:13.902Z,14.93
2022-12-12T03:05:09.375Z,14.57
2022-12-12T03:07:53.680Z,15.13
2022-12-12T03:10:29.900Z,13.73
2022-12-12T03:13:01.003Z,15.60
2022-12-12T03:15:39.088Z,14.95
2022-12-12T03:18:30.246Z,14.00
2022-12-12T03:21:15.048Z,15.20
2022-12-12T03:23:46.702Z,16.15
2022-12-12T03:26:24.923Z,15.88
2022-12-12T03:29:22.447Z,13.02
2022-12-12T03:31:56.217Z,17.55
2022-12-12T03:34:34.372Z,18.35
2022-12-12T03:37:24.457Z,15.23
2022-12-12T03:39:58.394Z,15.85
2022-12-12T03:42:40.568Z,26.10
2022-12-12T03:45:16.937Z,15.20
2022-12-12T03:48:23.899Z,18.48
2022-12-12T03:51:03.871Z,17.50
2022-12-12T03:53:33.416Z,16.30
2022-12-12T03:56:08.184Z,14.35
2022-12-12T03:58:41.255Z,14.75
2022-12-12T04:01:12.331Z,15.13
2022-12-12T04:04:09.628Z,16.63
2022-12-12T04:06:46.570Z,16.95
2022-12-12T04:09:37.063Z,14.07
2022-12-12T04:12:57.400Z,16.03
2022-12-12T04:15:52.007Z,17.05
2022-12-12T04:18:33.245Z,17.67
2022-12-12T04:24:02.250Z,17.92
2022-12-12T04:26:44.639Z,16.23
2022-12-12T04:29:35.169Z,13.25
2022-12-12T04:32:11.089Z,19.10
2022-12-12T04:34:53.953Z,22.02
2022-12-12T04:37:47.372Z,16.45
2022-12-12T04:40:23.581Z,16.75
2022-12-12T04:43:00.921Z,26.33
2022-12-12T04:45:34.850Z,21.10
2022-12-12T04:48:05.453Z,25.08
2022-12-12T04:50:34.761Z,25.15
2022-12-12T04:53:07.785Z,22.50
2022-12-12T04:55:38.772Z,19.80
2022-12-12T04:58:07.456Z,15.63
2022-12-12T05:00:54.340Z,17.00
2022-12-12T05:03:47.294Z,14.65
2022-12-12T05:06:18.484Z,19.77
2022-12-12T05:11:16.087Z,15.25
2022-12-12T05:13:43.808Z,19.88
2022-12-12T05:16:21.263Z,18.35
2022-12-12T05:18:48.953Z,16.58
2022-12-12T05:21:16.790Z,14.55
2022-12-12T05:23:44.141Z,18.45
2022-12-12T05:26:19.663Z,16.85
2022-12-12T05:28:46.754Z,16.25
2022-12-12T05:31:14.165Z,19.90
2022-12-12T05:33:42.125Z,19.48
2022-12-12T05:36:09.241Z,22.70
2022-12-12T05:38:39.377Z,23.60
2022-12-12T05:41:09.636Z,25.10
2022-12-12T05:43:37.490Z,27.27
2022-12-12T05:46:06.924Z,21.20
2022-12-12T05:48:35.084Z,19.50
2022-12-12T05:51:06.082Z,22.80
2022-12-12T05:53:41.986Z,20.77
2022-12-12T05:56:13.046Z,19.70
2022-12-12T05:58:44.379Z,27.63
2022-12-12T06:03:39.502Z,19.73
2022-12-12T06:06:06.799Z,16.88
2022-12-12T06:08:34.782Z,21.50
2022-12-12T06:11:05.826Z,18.08
2022-12-12T06:13:32.971Z,24.70
2022-12-12T06:16:00.433Z,22.88
2022-12-12T06:18:29.501Z,24.40
2022-12-12T06:21:11.174Z,23.00
2022-12-12T06:23:41.050Z,26.98
2022-12-12T06:26:11.757Z,27.77
2022-12-12T06:28:39.891Z,23.05
2022-12-12T06:31:11.535Z,27.65
2022-12-12T06:33:39.486Z,34.10
2022-12-12T06:36:26.060Z,33.47
2022-12-12T06:39:00.204Z,31.48
2022-12-12T06:41:31.001Z,40.22
2022-12-12T06:43:58.646Z,49.75
2022-12-12T06:46:28.631Z,55.45
2022-12-12T06:48:57.065Z,50.72
2022-12-12T06:51:32.451Z,44.85
2022-12-12T06:54:01.922Z,56.55
2022-12-12T06:56:29.278Z,50.08
2022-12-12T06:58:59.493Z,34.83
2022-12-12T07:01:27.050Z,18.40
2022-12-12T07:03:54.614Z,18.95
2022-12-12T07:06:23.736Z,19.40
2022-12-12T07:08:52.015Z,19.05
2022-12-12T07:11:24.853Z,20.77
2022-12-12T07:13:54.223Z,21.90
2022-12-12T07:16:22.254Z,22.30
2022-12-12T07:18:52.414Z,21.60
2022-12-12T07:21:20.725Z,16.77
2022-12-12T07:23:48.490Z,17.83
2022-12-12T07:26:18.781Z,18.83
2022-12-12T07:28:46.575Z,15.13
2022-12-12T07:31:19.968Z,28.65
2022-12-12T07:33:47.961Z,17.83
2022-12-12T07:36:16.719Z,42.20
2022-12-12T07:38:44.862Z,31.17
2022-12-12T07:41:15.454Z,27.30
2022-12-12T07:43:45.046Z,21.03
2022-12-12T07:46:20.677Z,19.95
2022-12-12T07:48:49.841Z,17.92
2022-12-12T07:51:17.868Z,17.85
2022-12-12T07:53:45.840Z,18.35
2022-12-12T07:56:15.822Z,20.85
2022-12-12T07:58:43.853Z,21.85
2022-12-12T08:01:18.416Z,17.30
2022-12-12T08:03:46.992Z,12.82
2022-12-12T08:06:16.556Z,20.30
2022-12-12T08:08:44.816Z,18.20
2022-12-12T08:11:14.832Z,15.65
2022-12-12T08:13:43.104Z,13.13
2022-12-12T08:16:27.309Z,15.35
2022-12-12T08:18:58.957Z,13.52
2022-12-12T08:21:27.479Z,13.02
2022-12-12T08:23:59.634Z,14.93
2022-12-12T08:26:29.693Z,16.75
2022-12-12T08:28:57.774Z,12.05
2022-12-12T08:31:25.870Z,13.07
2022-12-12T08:33:53.584Z,9.63
2022-12-12T08:36:26.427Z,12.52
2022-12-12T08:38:53.833Z,13.68
2022-12-12T08:41:22.386Z,9.50
2022-12-12T08:43:50.400Z,13.07
2022-12-12T08:46:18.829Z,11.50
2022-12-12T08:48:48.571Z,9.75
2022-12-12T08:51:18.055Z,11.18
2022-12-12T08:53:47.097Z,11.50
2022-12-12T08:56:16.449Z,10.00
2022-12-12T08:58:44.571Z,12.23
2022-12-12T09:01:19.057Z,10.35
2022-12-12T09:03:48.186Z,12.35
2022-12-12T09:06:17.147Z,10.60
2022-12-12T09:08:45.951Z,11.55
2022-12-12T09:11:16.086Z,9.43
2022-12-12T09:13:44.159Z,10.43
2022-12-12T09:16:12.449Z,13.10
2022-12-12T09:18:47.795Z,11.68
2022-12-12T09:21:16.264Z,13.18
2022-12-12T09:23:43.501Z,14.40
2022-12-12T09:26:11.111Z,11.23
2022-12-12T09:28:39.499Z,12.98
2022-12-12T09:31:08.909Z,15.98
2022-12-12T09:33:36.946Z,20.65
2022-12-12T09:36:10.075Z,15.60
2022-12-12T09:38:39.742Z,14.32
2022-12-12T09:41:09.543Z,12.23
2022-12-12T09:43:56.510Z,10.27
2022-12-12T09:47:02.383Z,11.93
2022-12-12T09:49:56.069Z,10.45
2022-12-12T09:52:32.833Z,12.20
2022-12-12T09:55:21.286Z,11.25
2022-12-12T09:58:03.343Z,8.27
2022-12-12T10:00:36.629Z,11.73
2022-12-12T10:03:16.253Z,8.07
2022-12-12T10:06:01.890Z,9.20
2022-12-12T10:08:49.635Z,7.97
2022-12-12T10:11:46.071Z,9.32
2022-12-12T10:14:16.885Z,9.63
2022-12-12T10:16:55.686Z,10.52
2022-12-12T10:22:02.586Z,10.88
2022-12-12T10:24:49.728Z,8.27
2022-12-12T10:27:18.535Z,9.70
2022-12-12T10:29:48.861Z,9.55
2022-12-12T10:32:47.054Z,6.93
2022-12-12T10:35:29.297Z,10.10
2022-12-12T10:38:24.271Z,9.15
2022-12-12T10:41:04.509Z,8.13
2022-12-12T10:43:41.333Z,12.82
2022-12-12T10:46:17.723Z,9.00
2022-12-12T10:48:47.753Z,10.68
2022-12-12T10:51:18.098Z,10.13
2022-12-12T10:53:48.393Z,10.52
2022-12-12T10:56:26.160Z,6.13
2022-12-12T10:59:02.453Z,9.20
2022-12-12T11:04:28.414Z,8.55
2022-12-12T11:06:56.486Z,12.05
2022-12-12T11:09:32.677Z,6.57
2022-12-12T11:12:12.759Z,11.02
2022-12-12T11:14:50.989Z,10.55
2022-12-12T11:17:33.204Z,9.48
2022-12-12T11:20:03.023Z,12.52
2022-12-12T11:22:33.321Z,11.65
2022-12-12T11:25:01.481Z,14.82
2022-12-12T11:27:36.410Z,10.85
2022-12-12T11:30:23.344Z,13.55
2022-12-12T11:32:58.803Z,13.10
2022-12-12T11:35:33.512Z,13.43
2022-12-12T11:38:06.221Z,11.02
2022-12-12T11:40:36.312Z,9.45
2022-12-12T11:43:30.405Z,13.18
2022-12-12T11:46:08.564Z,15.43
2022-12-12T11:48:57.669Z,12.45
2022-12-12T11:51:33.597Z,13.45
2022-12-12T11:54:03.054Z,15.57
2022-12-12T11:57:06.081Z,19.98
2022-12-12T11:59:49.352Z,12.38
2022-12-12T12:02:49.594Z,19.30
2022-12-12T12:05:27.164Z,11.55
2022-12-12T12:08:32.172Z,9.95
2022-12-12T12:11:10.821Z,16.95
2022-12-12T12:14:07.773Z,15.52
2022-12-12T12:17:09.008Z,12.02
2022-12-12T12:19:46.349Z,13.43
2022-12-12T12:22:39.209Z,13.25
2022-12-12T12:25:20.263Z,12.95
2022-12-12T12:28:08.705Z,16.25
2022-12-12T12:30:56.829Z,18.63
2022-12-12T12:33:45.144Z,11.63
2022-12-12T12:36:21.292Z,9.65
2022-12-12T12:38:57.232Z,15.57
2022-12-12T12:41:55.256Z,11.75
2022-12-12T12:44:44.127Z,10.43
2022-12-12T12:47:35.635Z,12.90
2022-12-12T12:50:23.868Z,14.02
2022-12-12T12:53:16.640Z,15.43
2022-12-12T12:55:51.153Z,13.35
2022-12-12T12:58:27.019Z,12.05
2022-12-12T13:01:05.548Z,13.15
2022-12-12T13:03:45.166Z,12.50
2022-12-12T13:06:23.529Z,11.00
2022-12-12T13:09:00.153Z,11.93
2022-12-12T13:11:42.291Z,11.75
2022-12-12T13:14:51.052Z,10.40
2022-12-12T13:17:28.214Z,13.25
2022-12-12T13:19:58.031Z,12.25
2022-12-12T13:22:46.254Z,14.30
2022-12-12T13:25:44.587Z,10.32
2022-12-12T13:28:19.758Z,13.57
2022-12-12T13:31:28.802Z,15.98
2022-12-12T13:34:09.042Z,14.70
2022-12-12T13:36:41.880Z,12.15
2022-12-12T13:39:22.254Z,14.43
2022-12-12T13:42:07.459Z,21.67
2022-12-12T13:44:50.477Z,26.88
2022-12-12T13:47:18.136Z,23.75
2022-12-12T13:50:09.650Z,21.08
2022-12-12T13:55:13.148Z,24.23
2022-12-12T13:57:59.986Z,21.60
2022-12-12T14:00:34.108Z,22.92
2022-12-12T14:03:07.462Z,17.27
2022-12-12T14:05:44.541Z,21.63
2022-12-12T14:08:12.730Z,24.65
2022-12-12T14:10:51.794Z,30.13
2022-12-12T14:13:24.468Z,28.88
2022-12-12T14:15:57.900Z,28.02
2022-12-12T14:18:36.898Z,21.77
2022-12-12T14:21:10.251Z,28.65
2022-12-12T14:23:42.261Z,28.45
2022-12-12T14:26:28.729Z,20.42
2022-12-12T14:29:17.783Z,25.00
2022-12-12T14:31:58.899Z,26.90
2022-12-12T14:37:20.105Z,23.45
2022-12-12T14:39:49.945Z,28.67
2022-12-12T14:43:19.998Z,29.73
2022-12-12T14:45:49.434Z,32.40
2022-12-12T14:48:34.495Z,36.83
2022-12-12T14:51:16.406Z,34.28
2022-12-12T14:53:53.282Z,33.92
2022-12-12T14:56:22.623Z,39.25
2022-12-12T14:58:59.581Z,32.35
2022-12-12T15:01:42.714Z,27.75
2022-12-12T15:04:14.283Z,33.10
2022-12-12T15:06:46.359Z,40.90
2022-12-12T15:09:16.597Z,74.70
2022-12-12T15:11:44.422Z,70.90
2022-12-12T15:14:23.839Z,70.28
2022-12-12T15:17:02.728Z,78.55
2022-12-12T15:19:39.784Z,87.57
2022-12-12T15:22:12.875Z,92.70
2022-12-12T15:24:40.405Z,77.82
2022-12-12T15:27:09.170Z,65.15
2022-12-12T15:29:38.072Z,60.35
2022-12-12T15:32:16.217Z,82.95
2022-12-12T15:34:46.471Z,108.32
2022-12-12T15:37:33.238Z,61.22
2022-12-12T15:40:12.321Z,85.13
2022-12-12T15:42:42.775Z,75.47
2022-12-12T15:45:22.022Z,104.68
2022-12-12T15:47:52.242Z,66.18
2022-12-12T15:50:47.252Z,71.75
2022-12-12T15:53:37.020Z,59.15
2022-12-12T15:56:22.899Z,73.07
2022-12-12T15:59:03.416Z,50.22
2022-12-12T16:01:31.220Z,49.47
2022-12-12T16:04:09.389Z,37.78
2022-12-12T16:06:45.865Z,37.22
2022-12-12T16:09:26.137Z,36.70
2022-12-12T16:11:59.887Z,40.05
2022-12-12T16:14:42.045Z,48.53
2022-12-12T16:17:20.497Z,45.03
2022-12-12T16:19:58.505Z,54.38
2022-12-12T16:22:33.504Z,58.38
2022-12-12T16:25:30.449Z,52.08
2022-12-12T16:28:21.622Z,50.70
2022-12-12T16:30:56.178Z,46.13
2022-12-12T16:33:28.743Z,32.63
2022-12-12T16:35:58.406Z,32.58
2022-12-12T16:38:26.355Z,39.85
2022-12-12T16:40:55.813Z,38.30
2022-12-12T16:43:24.425Z,31.27
2022-12-12T16:45:54.028Z,33.70
2022-12-12T16:48:24.131Z,37.08
2022-12-12T16:50:55.402Z,46.25
2022-12-12T16:55:59.075Z,37.47
2022-12-12T16:58:33.665Z,33.67
2022-12-12T17:01:06.958Z,32.17
2022-12-12T17:03:38.924Z,34.03
2022-12-12T17:08:33.202Z,37.10
2022-12-12T17:11:09.448Z,46.13
2022-12-12T17:13:41.361Z,31.52
2022-12-12T17:16:08.821Z,30.77
2022-12-12T17:18:36.090Z,26.83
2022-12-12T17:21:03.136Z,40.13
2022-12-12T17:23:31.146Z,44.08
2022-12-12T17:26:03.890Z,60.63
2022-12-12T17:28:34.356Z,36.45
2022-12-12T17:31:08.684Z,26.73
2022-12-12T17:33:45.923Z,29.38
2022-12-12T17:38:45.101Z,29.13
2022-12-12T17:41:12.837Z,52.38
2022-12-12T17:43:42.496Z,45.75
2022-12-12T17:46:14.763Z,38.17
2022-12-12T17:48:44.531Z,37.95
2022-12-12T17:51:16.337Z,39.65
2022-12-12T17:53:44.654Z,44.97
2022-12-12T17:56:16.325Z,39.53
2022-12-12T17:58:46.131Z,34.65
2022-12-12T18:01:33.579Z,38.38
2022-12-12T18:04:03.110Z,26.45
2022-12-12T18:06:35.828Z,23.50
2022-12-12T18:09:04.769Z,32.28
2022-12-12T18:11:46.393Z,34.10
2022-12-12T18:14:15.786Z,22.60
2022-12-12T18:16:44.798Z,19.40
2022-12-12T18:19:12.117Z,18.35
2022-12-12T18:24:30.576Z,18.98
2022-12-12T18:27:07.045Z,20.92
2022-12-12T18:29:34.165Z,20.08
2022-12-12T18:32:01.384Z,21.10
2022-12-12T18:34:28.726Z,14.75
2022-12-12T18:36:56.119Z,17.98
2022-12-12T18:39:23.630Z,15.85
2022-12-12T18:41:52.352Z,18.45
2022-12-12T18:44:20.353Z,18.60
2022-12-12T18:46:52.169Z,17.65
2022-12-12T18:49:22.268Z,12.48
2022-12-12T18:51:51.616Z,8.03
2022-12-12T18:54:19.985Z,14.77
2022-12-12T18:56:47.851Z,11.32
2022-12-12T18:59:16.272Z,9.50
2022-12-12T19:01:43.913Z,8.63
2022-12-12T19:04:15.127Z,9.57
2022-12-12T19:06:44.933Z,11.30
2022-12-12T19:09:48.390Z,7.95
2022-12-12T19:12:16.662Z,9.07
2022-12-12T19:15:15.183Z,12.48
2022-12-12T19:17:30.703Z,10.65
2022-12-12T19:19:57.911Z,11.50
2022-12-12T19:22:44.283Z,9.23
2022-12-12T19:25:12.691Z,7.75
2022-12-12T19:27:39.822Z,12.30
2022-12-12T19:30:10.796Z,11.07
2022-12-12T19:32:37.934Z,10.27
2022-12-12T19:35:05.439Z,7.35
2022-12-12T19:37:32.722Z,9.60
2022-12-12T19:39:59.858Z,7.72
2022-12-12T19:42:31.647Z,7.55
2022-12-12T19:44:58.759Z,9.57
2022-12-12T19:47:27.707Z,7.75
2022-12-12T19:49:55.118Z,6.65
2022-12-12T19:52:22.040Z,11.65
2022-12-12T19:54:49.103Z,10.80
2022-12-12T19:57:16.232Z,13.73
2022-12-12T20:00:02.382Z,12.95
2022-12-12T20:02:37.521Z,11.90
2022-12-12T20:05:04.818Z,12.20
2022-12-12T20:07:31.898Z,33.40
2022-12-12T20:09:58.950Z,14.20
2022-12-12T20:12:26.169Z,16.25
2022-12-12T20:14:53.135Z,21.40
2022-12-12T20:17:20.365Z,29.55
2022-12-12T20:19:49.589Z,17.08
2022-12-12T20:22:16.754Z,30.23
2022-12-12T20:24:45.213Z,16.85
2022-12-12T20:27:15.977Z,22.65
2022-12-12T20:29:43.084Z,19.35
2022-12-12T20:32:18.510Z,27.33
2022-12-12T20:34:50.143Z,28.45
2022-12-12T20:37:20.180Z,20.25
2022-12-12T20:39:48.225Z,31.52
2022-12-12T20:42:18.018Z,12.98
2022-12-12T20:44:45.475Z,23.23
2022-12-12T20:47:17.207Z,11.73
2022-12-12T20:49:45.152Z,11.73
2022-12-12T20:52:12.838Z,16.88
2022-12-12T20:54:46.405Z,7.80
2022-12-12T20:57:13.397Z,10.20
2022-12-12T20:59:40.792Z,7.32
2022-12-12T21:02:20.200Z,6.75
2022-12-12T21:04:47.554Z,8.57
2022-12-12T21:07:17.346Z,4.85
2022-12-12T21:09:44.619Z,7.90
2022-12-12T21:12:11.853Z,5.35
2022-12-12T21:14:39.080Z,7.78
2022-12-12T21:17:06.179Z,5.05
2022-12-12T21:19:33.249Z,4.75
2022-12-12T21:22:00.452Z,4.72
2022-12-12T21:24:27.365Z,3.22
2022-12-12T21:26:54.584Z,5.90
2022-12-12T21:29:49.521Z,3.83
2022-12-12T21:32:16.413Z,3.17
2022-12-12T21:34:44.325Z,2.75
2022-12-12T21:37:11.406Z,3.85
2022-12-12T21:39:39.060Z,4.65
2022-12-12T21:42:06.251Z,3.97
2022-12-12T21:44:33.317Z,5.10
2022-12-12T21:47:00.932Z,2.72
2022-12-12T21:49:28.321Z,3.20
2022-12-12T21:52:00.730Z,3.03
2022-12-12T21:54:29.378Z,2.88
2022-12-12T21:56:58.193Z,2.92
2022-12-12T21:59:25.954Z,3.03
2022-12-12T22:02:00.663Z,2.47
2022-12-12T22:04:28.344Z,1.33
2022-12-12T22:06:57.567Z,1.35
2022-12-12T22:09:24.704Z,2.70
2022-12-12T22:11:52.486Z,1.90
2022-12-12T22:14:30.677Z,2.60
2022-12-12T22:17:00.084Z,2.30
2022-12-12T22:19:27.231Z,1.90
2022-12-12T22:21:54.466Z,2.30
2022-12-12T22:24:22.384Z,1.50
2022-12-12T22:26:50.445Z,2.35
2022-12-12T22:29:20.576Z,3.00
2022-12-12T22:31:50.320Z,2.30
2022-12-12T22:34:26.717Z,1.88
2022-12-12T22:36:57.783Z,4.15
2022-12-12T22:39:28.173Z,2.67
2022-12-12T22:41:56.239Z,2.30
2022-12-12T22:44:26.485Z,3.60
2022-12-12T22:46:55.000Z,3.60
2022-12-12T22:49:27.464Z,6.32
2022-12-12T22:51:58.645Z,5.95
2022-12-12T22:54:26.643Z,4.13
2022-12-12T22:56:55.996Z,5.45
2022-12-12T22:59:24.611Z,3.03
2022-12-12T23:01:51.869Z,2.00
2022-12-12T23:04:18.900Z,4.72
2022-12-12T23:06:46.679Z,4.30
2022-12-12T23:09:17.127Z,4.47
2022-12-12T23:11:45.400Z,4.72
2022-12-12T23:14:16.251Z,4.88
2022-12-12T23:16:44.768Z,3.47
2022-12-12T23:19:15.371Z,2.88
2022-12-12T23:21:42.948Z,1.80
2022-12-12T23:24:10.317Z,3.42
2022-12-12T23:26:38.805Z,2.20
2022-12-12T23:29:09.405Z,2.20
2022-12-12T23:31:38.816Z,2.90
2022-12-12T23:34:09.415Z,3.25
2022-12-12T23:36:36.506Z,1.95
2022-12-12T23:39:08.021Z,3.05
2022-12-12T23:41:36.749Z,4.07
2022-12-12T23:44:05.687Z,2.53
2022-12-12T23:46:33.873Z,2.50
2022-12-12T23:49:06.297Z,3.60
2022-12-12T23:54:04.627Z,1.67
2022-12-12T23:56:32.383Z,2.10
2022-12-12T23:58:59.950Z,1.70
